createdAt,value
2018-02-08T00:02:06.301Z,20.80
2018-02-08T00:04:49.629Z,21.62
2018-02-08T00:07:22.157Z,20.98
2018-02-08T00:10:00.137Z,22.05
2018-02-08T00:12:40.157Z,20.45
2018-02-08T00:15:17.450Z,23.15
2018-02-08T00:17:54.973Z,20.67
2018-02-08T00:20:33.097Z,22.27
2018-02-08T00:23:13.171Z,20.88
2018-02-08T00:25:52.065Z,22.02
2018-02-08T00:28:33.762Z,22.67
2018-02-08T00:31:12.839Z,20.48
2018-02-08T00:33:52.016Z,23.98
2018-02-08T00:36:32.366Z,21.48
2018-02-08T00:39:06.024Z,22.08
2018-02-08T00:41:47.785Z,22.00
2018-02-08T00:44:25.874Z,23.45
2018-02-08T00:47:05.473Z,23.35
2018-02-08T00:49:44.226Z,22.90
2018-02-08T00:52:23.665Z,23.48
2018-02-08T00:55:02.769Z,23.33
2018-02-08T00:57:44.895Z,22.55
2018-02-08T01:00:24.546Z,21.25
2018-02-08T01:03:04.772Z,24.20
2018-02-08T01:05:48.135Z,23.17
2018-02-08T01:08:30.515Z,23.92
2018-02-08T01:11:12.636Z,22.85
2018-02-08T01:13:52.201Z,25.25
2018-02-08T01:16:25.583Z,24.20
2018-02-08T01:19:04.880Z,22.83
2018-02-08T01:21:44.863Z,22.35
2018-02-08T01:24:24.156Z,23.85
2018-02-08T01:27:02.509Z,22.58
2018-02-08T01:29:37.605Z,23.98
2018-02-08T01:32:17.152Z,23.00
2018-02-08T01:34:53.517Z,23.98
2018-02-08T01:37:35.090Z,24.58
2018-02-08T01:40:18.756Z,24.83
2018-02-08T01:42:56.782Z,23.87
2018-02-08T01:45:44.913Z,22.02
2018-02-08T01:48:22.730Z,23.70
2018-02-08T01:51:02.626Z,25.35
2018-02-08T01:53:40.532Z,22.75
2018-02-08T01:56:19.213Z,25.40
2018-02-08T01:59:01.203Z,23.73
2018-02-08T02:01:50.507Z,25.00
2018-02-08T02:04:40.920Z,24.27
2018-02-08T02:07:20.185Z,23.73
2018-02-08T02:09:59.430Z,25.62
2018-02-08T02:12:38.243Z,23.15
2018-02-08T02:15:17.122Z,25.60
2018-02-08T02:17:59.757Z,25.30
2018-02-08T02:20:38.521Z,22.95
2018-02-08T02:23:21.267Z,24.85
2018-02-08T02:25:57.816Z,25.05
2018-02-08T02:28:40.943Z,24.37
2018-02-08T02:31:20.803Z,22.92
2018-02-08T02:34:01.497Z,22.50
2018-02-08T02:36:35.379Z,23.87
2018-02-08T02:39:12.600Z,22.50
2018-02-08T02:41:50.392Z,23.55
2018-02-08T02:44:33.619Z,25.75
2018-02-08T02:47:16.658Z,27.55
2018-02-08T02:49:54.427Z,26.50
2018-02-08T02:52:34.280Z,24.35
2018-02-08T02:55:16.637Z,26.48
2018-02-08T02:57:55.609Z,23.95
2018-02-08T03:00:36.536Z,23.80
2018-02-08T03:03:17.336Z,25.25
2018-02-08T03:05:56.123Z,24.85
2018-02-08T03:08:34.905Z,23.40
2018-02-08T03:11:12.595Z,22.50
2018-02-08T03:13:52.639Z,25.20
2018-02-08T03:16:33.047Z,24.48
2018-02-08T03:19:11.400Z,22.77
2018-02-08T03:21:51.293Z,22.90
2018-02-08T03:24:31.961Z,25.00
2018-02-08T03:27:15.641Z,24.63
2018-02-08T03:29:53.324Z,24.30
2018-02-08T03:32:33.741Z,22.87
2018-02-08T03:35:14.923Z,24.12
2018-02-08T03:37:50.808Z,24.45
2018-02-08T03:40:29.097Z,23.60
2018-02-08T03:43:10.756Z,24.37
2018-02-08T03:45:48.957Z,22.17
2018-02-08T03:48:27.778Z,23.62
2018-02-08T03:51:06.195Z,22.37
2018-02-08T03:53:47.729Z,23.87
2018-02-08T03:56:25.532Z,23.08
2018-02-08T03:59:05.256Z,22.77
2018-02-08T04:01:43.891Z,22.65
2018-02-08T04:04:22.160Z,23.75
2018-02-08T04:07:00.830Z,23.80
2018-02-08T04:09:41.259Z,24.05
2018-02-08T04:12:20.731Z,23.17
2018-02-08T04:14:58.307Z,25.02
2018-02-08T04:17:35.918Z,25.15
2018-02-08T04:20:14.164Z,25.10
2018-02-08T04:22:52.683Z,24.70
2018-02-08T04:25:31.759Z,23.45
2018-02-08T04:28:10.374Z,24.33
2018-02-08T04:30:49.498Z,23.17
2018-02-08T04:33:28.298Z,24.42
2018-02-08T04:36:05.426Z,25.17
2018-02-08T04:38:48.035Z,24.75
2018-02-08T04:41:35.184Z,26.77
2018-02-08T04:44:21.883Z,24.98
2018-02-08T04:47:10.743Z,24.27
2018-02-08T04:49:50.442Z,24.20
2018-02-08T04:52:30.249Z,26.37
2018-02-08T04:55:07.991Z,25.65
2018-02-08T04:57:49.643Z,24.65
2018-02-08T05:00:31.257Z,25.73
2018-02-08T05:03:10.650Z,25.20
2018-02-08T05:05:49.437Z,25.35
2018-02-08T05:08:22.684Z,24.25
2018-02-08T05:11:02.625Z,24.40
2018-02-08T05:13:41.806Z,24.60
2018-02-08T05:16:15.380Z,25.05
2018-02-08T05:18:55.935Z,26.20
2018-02-08T05:21:34.988Z,24.73
2018-02-08T05:24:13.943Z,24.33
2018-02-08T05:26:53.773Z,25.75
2018-02-08T05:29:33.004Z,24.37
2018-02-08T05:32:10.960Z,21.60
2018-02-08T05:34:50.848Z,25.37
2018-02-08T05:37:28.107Z,23.52
2018-02-08T05:40:06.207Z,24.02
2018-02-08T05:42:46.047Z,20.80
2018-02-08T05:45:19.990Z,23.30
2018-02-08T05:47:58.896Z,25.40
2018-02-08T05:50:36.705Z,26.15
2018-02-08T05:53:13.851Z,25.75
2018-02-08T05:55:50.083Z,23.58
2018-02-08T05:58:27.921Z,22.75
2018-02-08T06:01:09.293Z,26.75
2018-02-08T06:03:42.636Z,27.62
2018-02-08T06:06:22.333Z,23.77
2018-02-08T06:09:00.708Z,24.17
2018-02-08T06:11:39.669Z,25.85
2018-02-08T06:14:21.285Z,24.58
2018-02-08T06:16:55.681Z,22.35
2018-02-08T06:19:29.830Z,22.98
2018-02-08T06:22:04.027Z,24.20
2018-02-08T06:24:37.860Z,23.60
2018-02-08T06:28:32.500Z,25.10
2018-02-08T06:31:12.564Z,24.67
2018-02-08T06:33:52.635Z,24.25
2018-02-08T06:36:33.931Z,22.92
2018-02-08T06:39:09.372Z,25.65
2018-02-08T06:41:46.529Z,24.67
2018-02-08T06:44:25.645Z,24.63
2018-02-08T06:47:00.246Z,23.17
2018-02-08T06:49:42.463Z,25.40
2018-02-08T06:52:15.043Z,24.80
2018-02-08T06:54:49.586Z,25.52
2018-02-08T06:57:27.687Z,24.25
2018-02-08T07:00:06.943Z,22.52
2018-02-08T07:02:46.174Z,23.70
2018-02-08T07:05:28.487Z,24.77
2018-02-08T07:08:07.318Z,27.27
2018-02-08T07:10:48.672Z,24.73
2018-02-08T07:13:28.458Z,24.92
2018-02-08T07:16:09.230Z,23.62
2018-02-08T07:18:48.693Z,25.95
2018-02-08T07:21:24.656Z,24.87
2018-02-08T07:23:58.504Z,24.90
2018-02-08T07:26:39.353Z,23.90
2018-02-08T07:29:20.544Z,24.40
2018-02-08T07:31:55.479Z,26.15
2018-02-08T07:34:37.528Z,25.12
2018-02-08T07:37:20.037Z,24.83
2018-02-08T07:40:01.767Z,28.45
2018-02-08T07:42:43.284Z,26.05
2018-02-08T07:45:25.036Z,26.90
2018-02-08T07:48:04.066Z,26.90
2018-02-08T07:50:43.738Z,28.20
2018-02-08T07:53:23.530Z,31.75
2018-02-08T07:56:02.759Z,28.12
2018-02-08T07:58:45.530Z,27.48
2018-02-08T08:01:28.363Z,29.27
2018-02-08T08:04:07.939Z,30.60
2018-02-08T08:06:50.097Z,30.58
2018-02-08T08:09:30.276Z,31.58
2018-02-08T08:12:11.853Z,34.83
2018-02-08T08:14:47.267Z,32.55
2018-02-08T08:17:25.539Z,32.42
2018-02-08T08:20:05.487Z,32.50
2018-02-08T08:22:43.618Z,32.13
2018-02-08T08:25:19.544Z,31.45
2018-02-08T08:27:55.825Z,31.20
2018-02-08T08:30:31.605Z,30.95
2018-02-08T08:33:05.490Z,31.30
2018-02-08T08:35:45.326Z,34.08
2018-02-08T08:38:19.167Z,34.90
2018-02-08T08:40:58.479Z,32.42
2018-02-08T08:43:37.269Z,33.08
2018-02-08T08:46:17.586Z,34.10
2018-02-08T08:48:55.152Z,34.28
2018-02-08T08:51:34.029Z,32.28
2018-02-08T08:54:14.639Z,32.58
2018-02-08T08:56:54.590Z,33.03
2018-02-08T08:59:28.437Z,29.48
2018-02-08T09:02:03.920Z,37.67
2018-02-08T09:04:38.066Z,36.50
2018-02-08T09:07:13.068Z,31.25
2018-02-08T09:09:48.357Z,31.02
2018-02-08T09:12:28.548Z,34.33
2018-02-08T09:15:07.800Z,35.45
2018-02-08T09:17:49.787Z,30.83
2018-02-08T09:20:24.883Z,33.42
2018-02-08T09:23:05.446Z,31.75
2018-02-08T09:25:46.206Z,33.40
2018-02-08T09:28:19.922Z,31.62
2018-02-08T09:30:54.513Z,31.23
2018-02-08T09:33:40.094Z,29.35
2018-02-08T09:36:20.923Z,28.38
2018-02-08T09:39:06.414Z,31.48
2018-02-08T09:41:47.523Z,30.58
2018-02-08T09:44:28.250Z,33.03
2018-02-08T09:47:12.909Z,33.47
2018-02-08T09:49:56.541Z,30.30
2018-02-08T09:52:42.801Z,26.00
2018-02-08T09:55:17.938Z,27.40
2018-02-08T09:57:57.449Z,27.58
2018-02-08T10:00:36.376Z,28.25
2018-02-08T10:03:10.540Z,26.25
2018-02-08T10:05:50.785Z,26.10
2018-02-08T10:08:31.311Z,24.87
2018-02-08T10:11:12.545Z,25.35
2018-02-08T10:13:54.155Z,23.27
2018-02-08T10:16:33.701Z,26.12
2018-02-08T10:19:17.776Z,24.50
2018-02-08T10:21:52.563Z,24.33
2018-02-08T10:24:32.285Z,27.00
2018-02-08T10:27:12.078Z,26.67
2018-02-08T10:29:54.217Z,28.35
2018-02-08T10:32:29.609Z,26.87
2018-02-08T10:35:11.342Z,26.70
2018-02-08T10:37:53.704Z,25.70
2018-02-08T10:40:27.781Z,24.70
2018-02-08T10:43:09.751Z,25.20
2018-02-08T10:45:49.754Z,26.90
2018-02-08T10:48:24.075Z,26.23
2018-02-08T10:51:08.191Z,27.62
2018-02-08T10:53:52.524Z,27.58
2018-02-08T10:56:34.741Z,27.58
2018-02-08T10:59:15.395Z,27.70
2018-02-08T11:01:53.946Z,29.35
2018-02-08T11:04:31.908Z,28.92
2018-02-08T11:07:08.242Z,28.20
2018-02-08T11:09:49.764Z,28.10
2018-02-08T11:12:31.697Z,28.85
2018-02-08T11:15:13.196Z,25.08
2018-02-08T11:17:54.838Z,27.58
2018-02-08T11:20:29.906Z,27.50
2018-02-08T11:23:11.353Z,27.85
2018-02-08T11:25:51.849Z,27.27
2018-02-08T11:28:38.631Z,25.17
2018-02-08T11:31:19.087Z,26.12
2018-02-08T11:33:54.547Z,27.90
2018-02-08T11:36:36.544Z,29.20
2018-02-08T11:39:18.487Z,26.98
2018-02-08T11:41:53.240Z,25.65
2018-02-08T11:44:29.326Z,26.95
2018-02-08T11:47:09.657Z,26.70
2018-02-08T11:49:42.685Z,26.33
2018-02-08T11:52:14.326Z,26.33
2018-02-08T11:54:59.299Z,28.05
2018-02-08T11:57:39.136Z,27.48
2018-02-08T12:00:19.094Z,26.00
2018-02-08T12:02:53.690Z,29.98
2018-02-08T12:05:35.850Z,30.17
2018-02-08T12:08:15.067Z,31.52
2018-02-08T12:10:55.030Z,28.77
2018-02-08T12:13:38.766Z,29.20
2018-02-08T12:16:20.321Z,30.30
2018-02-08T12:19:00.080Z,29.23
2018-02-08T12:21:39.595Z,28.83
2018-02-08T12:24:18.741Z,31.92
2018-02-08T12:27:02.117Z,30.95
2018-02-08T12:29:40.822Z,29.27
2018-02-08T12:32:16.710Z,28.10
2018-02-08T12:34:56.733Z,28.85
2018-02-08T12:37:36.809Z,26.35
2018-02-08T12:40:11.599Z,29.25
2018-02-08T12:42:54.405Z,25.80
2018-02-08T12:45:29.608Z,27.35
2018-02-08T12:48:10.118Z,24.02
2018-02-08T12:50:51.847Z,25.95
2018-02-08T12:53:32.751Z,25.50
2018-02-08T12:56:13.531Z,24.33
2018-02-08T12:58:56.038Z,26.42
2018-02-08T13:01:31.435Z,24.95
2018-02-08T13:04:12.239Z,23.90
2018-02-08T13:06:51.525Z,24.87
2018-02-08T13:09:27.945Z,24.42
2018-02-08T13:12:02.420Z,23.65
2018-02-08T13:14:40.292Z,22.80
2018-02-08T13:17:24.068Z,24.70
2018-02-08T13:20:03.008Z,23.20
2018-02-08T13:22:43.350Z,22.33
2018-02-08T13:25:26.151Z,23.52
2018-02-08T13:28:06.430Z,23.02
2018-02-08T13:30:45.691Z,23.25
2018-02-08T13:33:25.994Z,23.77
2018-02-08T13:36:06.933Z,21.52
2018-02-08T13:38:45.942Z,19.80
2018-02-08T13:41:25.392Z,21.90
2018-02-08T13:44:04.929Z,21.55
2018-02-08T13:46:44.498Z,18.90
2018-02-08T13:49:21.574Z,18.40
2018-02-08T13:52:18.021Z,20.27
2018-02-08T13:54:52.900Z,20.23
2018-02-08T13:57:47.712Z,19.83
2018-02-08T14:00:27.351Z,20.80
2018-02-08T14:03:07.983Z,16.35
2018-02-08T14:05:42.341Z,16.10
2018-02-08T14:08:17.092Z,18.83
2018-02-08T14:10:51.182Z,17.52
2018-02-08T14:13:31.718Z,18.80
2018-02-08T14:16:11.002Z,18.70
2018-02-08T14:18:52.505Z,19.30
2018-02-08T14:21:32.149Z,19.30
2018-02-08T14:24:11.997Z,19.25
2018-02-08T14:26:51.448Z,19.62
2018-02-08T14:29:34.320Z,16.40
2018-02-08T14:32:17.801Z,18.60
2018-02-08T14:34:58.665Z,16.60
2018-02-08T14:37:34.034Z,18.55
2018-02-08T14:40:14.249Z,20.58
2018-02-08T14:42:59.573Z,17.70
2018-02-08T14:45:43.515Z,16.73
2018-02-08T14:48:23.781Z,17.55
2018-02-08T14:51:07.883Z,16.37
2018-02-08T14:53:53.831Z,16.37
2018-02-08T14:56:34.677Z,14.20
2018-02-08T14:59:15.498Z,15.05
2018-02-08T15:01:53.731Z,16.73
2018-02-08T15:04:33.029Z,16.92
2018-02-08T15:07:15.212Z,16.25
2018-02-08T15:09:50.194Z,18.87
2018-02-08T15:12:36.115Z,18.83
2018-02-08T15:15:18.940Z,21.17
2018-02-08T15:18:00.810Z,18.80
2018-02-08T15:20:41.103Z,18.55
2018-02-08T15:23:16.501Z,18.70
2018-02-08T15:25:52.287Z,20.05
2018-02-08T15:28:33.057Z,20.92
2018-02-08T15:31:13.507Z,21.85
2018-02-08T15:33:46.538Z,22.48
2018-02-08T15:36:28.614Z,22.30
2018-02-08T15:39:13.871Z,22.27
2018-02-08T15:41:50.253Z,23.55
2018-02-08T15:44:28.588Z,23.65
2018-02-08T15:47:11.915Z,24.87
2018-02-08T15:49:50.303Z,22.60
2018-02-08T15:52:28.299Z,24.90
2018-02-08T15:55:08.045Z,24.70
2018-02-08T15:57:47.672Z,21.45
2018-02-08T16:00:22.490Z,24.92
2018-02-08T16:02:59.741Z,22.23
2018-02-08T16:05:42.080Z,21.98
2018-02-08T16:08:22.748Z,23.73
2018-02-08T16:11:02.225Z,23.15
2018-02-08T16:13:44.138Z,23.98
2018-02-08T16:16:24.187Z,22.98
2018-02-08T16:19:01.252Z,22.30
2018-02-08T16:21:42.778Z,26.05
2018-02-08T16:24:21.756Z,25.10
2018-02-08T16:27:02.887Z,22.17
2018-02-08T16:29:44.360Z,22.17
2018-02-08T16:32:26.109Z,22.00
2018-02-08T16:35:05.826Z,24.70
2018-02-08T16:37:45.786Z,19.85
2018-02-08T16:40:19.629Z,22.65
2018-02-08T16:42:53.586Z,22.20
2018-02-08T16:45:35.950Z,24.30
2018-02-08T16:48:16.123Z,23.58
2018-02-08T16:50:56.558Z,22.70
2018-02-08T16:53:35.512Z,23.27
2018-02-08T16:56:09.239Z,27.62
2018-02-08T16:58:47.748Z,23.87
2018-02-08T17:01:23.526Z,24.02
2018-02-08T17:03:58.682Z,24.20
2018-02-08T17:06:40.645Z,23.77
2018-02-08T17:09:22.720Z,23.15
2018-02-08T17:12:04.573Z,25.67
2018-02-08T17:14:44.995Z,26.75
2018-02-08T17:17:24.070Z,25.02
2018-02-08T17:20:04.772Z,24.52
2018-02-08T17:22:46.172Z,25.73
2018-02-08T17:25:19.849Z,24.20
2018-02-08T17:27:55.408Z,28.75
2018-02-08T17:30:36.887Z,29.30
2018-02-08T17:33:20.872Z,25.37
2018-02-08T17:36:01.311Z,26.52
2018-02-08T17:38:35.422Z,30.58
2018-02-08T17:41:15.489Z,28.50
2018-02-08T17:43:56.985Z,29.63
2018-02-08T17:46:37.407Z,29.27
2018-02-08T17:49:22.783Z,29.35
2018-02-08T17:52:00.287Z,30.17
2018-02-08T17:54:38.539Z,29.55
2018-02-08T17:57:20.482Z,28.95
2018-02-08T18:00:01.971Z,27.92
2018-02-08T18:02:43.510Z,30.02
2018-02-08T18:05:19.145Z,29.27
2018-02-08T18:08:00.339Z,33.10
2018-02-08T18:10:45.153Z,29.52
2018-02-08T18:13:27.477Z,32.35
2018-02-08T18:16:06.644Z,30.42
2018-02-08T18:18:46.145Z,32.10
2018-02-08T18:21:21.119Z,30.67
2018-02-08T18:24:02.238Z,32.85
2018-02-08T18:26:39.085Z,32.85
2018-02-08T18:29:23.175Z,31.58
2018-02-08T18:32:02.714Z,30.65
2018-02-08T18:34:40.587Z,32.47
2018-02-08T18:37:21.680Z,32.85
2018-02-08T18:39:55.460Z,31.85
2018-02-08T18:42:34.980Z,32.53
2018-02-08T18:45:13.477Z,30.50
2018-02-08T18:47:58.680Z,33.22
2018-02-08T18:50:39.157Z,33.65
2018-02-08T18:53:20.330Z,32.20
2018-02-08T18:55:57.140Z,34.15
2018-02-08T18:58:31.114Z,31.95
2018-02-08T19:01:11.525Z,32.42
2018-02-08T19:03:51.164Z,32.70
2018-02-08T19:06:35.642Z,32.03
2018-02-08T19:09:14.602Z,33.45
2018-02-08T19:12:00.506Z,33.33
2018-02-08T19:14:35.464Z,34.65
2018-02-08T19:17:10.169Z,33.85
2018-02-08T19:19:48.552Z,35.70
2018-02-08T19:22:28.850Z,33.53
2018-02-08T19:25:12.388Z,29.70
2018-02-08T19:27:55.569Z,31.55
2018-02-08T19:30:34.205Z,35.17
2018-02-08T19:33:20.694Z,33.08
2018-02-08T19:36:04.652Z,35.25
2018-02-08T19:38:39.479Z,36.38
2018-02-08T19:41:18.995Z,35.30
2018-02-08T19:43:58.880Z,32.55
2018-02-08T19:46:39.721Z,31.50
2018-02-08T19:49:17.012Z,31.52
2018-02-08T19:51:57.980Z,32.97
2018-02-08T19:54:37.645Z,37.20
2018-02-08T19:57:20.444Z,37.20
2018-02-08T20:00:00.099Z,33.75
2018-02-08T20:02:42.145Z,33.17
2018-02-08T20:05:21.139Z,35.92
2018-02-08T20:08:02.130Z,35.92
2018-02-08T20:10:42.493Z,31.80
2018-02-08T20:13:26.854Z,33.72
2018-02-08T20:16:11.548Z,33.83
2018-02-08T20:18:55.963Z,33.40
2018-02-08T20:21:35.936Z,34.95
2018-02-08T20:24:18.078Z,34.20
2018-02-08T20:27:02.289Z,33.90
2018-02-08T20:29:41.605Z,31.12
2018-02-08T20:32:17.213Z,32.75
2018-02-08T20:34:51.379Z,33.85
2018-02-08T20:37:31.112Z,33.15
2018-02-08T20:40:11.968Z,32.95
2018-02-08T20:42:54.724Z,35.08
2018-02-08T20:45:34.220Z,34.00
2018-02-08T20:48:12.339Z,28.45
2018-02-08T20:50:52.124Z,30.70
2018-02-08T20:53:29.268Z,32.38
2018-02-08T20:56:07.766Z,31.15
2018-02-08T20:58:46.700Z,31.05
2018-02-08T21:01:29.026Z,33.75
2018-02-08T21:04:10.612Z,30.95
2018-02-08T21:06:47.854Z,34.15
2018-02-08T21:09:29.537Z,33.72
2018-02-08T21:12:08.252Z,34.30
2018-02-08T21:14:48.706Z,34.63
2018-02-08T21:17:31.894Z,30.62
2018-02-08T21:20:13.792Z,34.95
2018-02-08T21:22:56.518Z,33.40
2018-02-08T21:25:37.556Z,34.35
2018-02-08T21:28:15.292Z,32.70
2018-02-08T21:30:56.155Z,32.45
2018-02-08T21:33:37.948Z,33.63
2018-02-08T21:36:19.080Z,31.87
2018-02-08T21:39:00.588Z,33.50
2018-02-08T21:41:36.766Z,31.58
2018-02-08T21:44:20.195Z,35.72
2018-02-08T21:47:01.698Z,34.90
2018-02-08T21:49:42.348Z,32.47
2018-02-08T21:52:24.809Z,33.30
2018-02-08T21:55:01.484Z,35.75
2018-02-08T21:57:44.954Z,32.65
2018-02-08T22:00:18.687Z,38.85
2018-02-08T22:02:57.233Z,37.78
2018-02-08T22:05:36.707Z,33.70
2018-02-08T22:08:10.910Z,35.40
2018-02-08T22:10:45.166Z,34.67
2018-02-08T22:13:24.371Z,35.25
2018-02-08T22:16:04.167Z,35.97
2018-02-08T22:18:43.513Z,35.85
2018-02-08T22:21:22.072Z,37.08
2018-02-08T22:23:58.299Z,34.67
2018-02-08T22:26:38.550Z,38.08
2018-02-08T22:29:18.381Z,35.33
2018-02-08T22:31:52.472Z,36.58
2018-02-08T22:34:32.305Z,39.17
2018-02-08T22:37:11.707Z,36.60
2018-02-08T22:39:50.924Z,37.78
2018-02-08T22:42:29.914Z,32.17
2018-02-08T22:45:11.609Z,37.85
2018-02-08T22:47:46.311Z,33.78
2018-02-08T22:50:28.523Z,35.13
2018-02-08T22:53:10.297Z,34.92
2018-02-08T22:55:49.019Z,35.67
2018-02-08T22:58:22.806Z,35.00
2018-02-08T23:01:02.386Z,34.55
2018-02-08T23:03:41.373Z,36.85
2018-02-08T23:06:22.806Z,33.63
2018-02-08T23:09:01.220Z,36.22
2018-02-08T23:11:40.426Z,35.83
2018-02-08T23:14:20.248Z,34.33
2018-02-08T23:17:00.216Z,31.20
2018-02-08T23:19:39.085Z,35.50
2018-02-08T23:22:12.589Z,31.92
2018-02-08T23:24:51.970Z,32.85
2018-02-08T23:27:32.086Z,33.88
2018-02-08T23:30:10.593Z,32.75
2018-02-08T23:32:52.468Z,32.88
2018-02-08T23:35:34.972Z,35.70
2018-02-08T23:38:14.653Z,35.47
2018-02-08T23:40:53.254Z,34.00
2018-02-08T23:43:31.703Z,34.95
2018-02-08T23:46:12.127Z,34.20
2018-02-08T23:48:51.536Z,38.60
2018-02-08T23:51:32.561Z,31.60
2018-02-08T23:54:17.165Z,37.10
2018-02-08T23:56:59.910Z,36.50
2018-02-08T23:59:41.412Z,34.20
